Time;durP1;ratioP1;P1;durP2;ratioP2;P2;SDS_P1;SDS_P2;PMS_P1;PMS_P2;Temp;Humidity;BMP_temperature;BMP_pressure;BME280_temperature;BME280_humidity;BME280_pressure;Samples;Min_cycle;Max_cycle;Signal;HPM_P1;HPM_P2
2022/05/06 00:01:06;;;;;;;29.90;18.13;;;8.70;99.90;;;;;;5124217;28;20047;-64
2022/05/06 00:03:31;;;;;;;29.40;17.77;;;8.80;99.90;;;;;;5117674;28;20047;-64
2022/05/06 00:05:57;;;;;;;28.27;18.55;;;8.70;99.90;;;;;;5123781;28;20046;-64
2022/05/06 00:08:23;;;;;;;28.02;18.20;;;8.70;99.90;;;;;;5123654;28;20090;-64
2022/05/06 00:10:48;;;;;;;27.58;16.38;;;8.60;99.90;;;;;;5127464;28;20048;-63
2022/05/06 00:13:14;;;;;;;25.45;16.77;;;8.50;99.90;;;;;;5124800;28;20039;-64
2022/05/06 00:15:40;;;;;;;30.85;19.38;;;8.50;99.90;;;;;;5125439;28;20059;-64
2022/05/06 00:18:06;;;;;;;33.75;19.48;;;8.50;99.90;;;;;;5123057;28;20054;-64
2022/05/06 00:20:31;;;;;;;28.17;18.27;;;8.40;99.90;;;;;;5106040;28;20109;-64
2022/05/06 00:22:57;;;;;;;31.40;19.25;;;8.40;99.90;;;;;;5118008;28;20457;-63
2022/05/06 00:25:24;;;;;;;32.28;18.35;;;8.30;99.90;;;;;;5126298;28;20062;-64
2022/05/06 00:27:50;;;;;;;26.02;17.98;;;8.30;99.90;;;;;;5125168;28;20054;-64
2022/05/06 00:30:15;;;;;;;30.15;18.85;;;8.30;99.90;;;;;;5126124;28;20047;-63
2022/05/06 00:32:41;;;;;;;30.13;18.92;;;8.40;99.90;;;;;;5125794;28;20040;-63
2022/05/06 00:35:07;;;;;;;30.13;17.65;;;8.30;99.90;;;;;;5124935;28;20047;-64
2022/05/06 00:37:33;;;;;;;28.67;18.25;;;8.40;99.90;;;;;;5124101;28;20047;-64
2022/05/06 00:39:59;;;;;;;29.17;18.80;;;8.30;99.90;;;;;;5125885;28;20054;-63
2022/05/06 00:42:25;;;;;;;32.33;19.33;;;8.30;99.90;;;;;;5125705;28;20121;-64
2022/05/06 00:44:50;;;;;;;28.48;18.23;;;8.30;99.90;;;;;;5141963;27;20062;-64
2022/05/06 00:47:19;;;;;;;32.40;18.02;;;8.20;99.90;;;;;;5107433;28;20044;-64
2022/05/06 00:49:46;;;;;;;29.95;19.75;;;8.40;99.90;;;;;;5124502;28;20089;-63
2022/05/06 00:52:12;;;;;;;28.15;17.60;;;8.40;99.90;;;;;;5141469;27;20078;-64
2022/05/06 00:54:39;;;;;;;26.92;17.27;;;8.30;99.90;;;;;;5107540;28;20049;-64
2022/05/06 00:57:07;;;;;;;31.17;19.02;;;8.30;99.90;;;;;;5125608;28;20040;-64
2022/05/06 00:59:33;;;;;;;31.05;17.50;;;8.30;99.90;;;;;;5124680;28;20047;-63
2022/05/06 01:01:58;;;;;;;27.13;16.70;;;8.30;99.90;;;;;;5125017;28;20047;-64
2022/05/06 01:04:24;;;;;;;25.83;16.92;;;8.20;99.90;;;;;;5124801;28;20187;-64
2022/05/06 01:06:50;;;;;;;23.17;15.93;;;8.20;99.90;;;;;;5125469;28;20437;-64
2022/05/06 01:09:17;;;;;;;28.55;16.70;;;8.10;99.90;;;;;;5124416;28;20086;-64
2022/05/06 01:11:43;;;;;;;27.17;17.55;;;8.10;99.90;;;;;;5126095;28;20089;-64
2022/05/06 01:14:09;;;;;;;27.25;16.65;;;8.20;99.90;;;;;;5126179;28;20441;-64
2022/05/06 01:16:36;;;;;;;23.63;15.38;;;8.10;99.90;;;;;;5115614;28;20078;-64
2022/05/06 01:19:04;;;;;;;22.50;14.52;;;8.10;99.90;;;;;;5107819;28;20087;-64
2022/05/06 01:21:38;;;;;;;22.90;15.10;;;7.90;99.90;;;;;;5106807;28;20055;-64
2022/05/06 01:24:04;;;;;;;27.45;17.23;;;7.90;99.90;;;;;;5124165;28;20054;-63
2022/05/06 01:26:53;;;;;;;22.05;15.07;;;7.90;99.90;;;;;;5125241;28;20092;-64
2022/05/06 01:29:22;;;;;;;23.27;15.23;;;7.90;99.90;;;;;;5124097;28;20047;-63
2022/05/06 01:31:51;;;;;;;25.85;16.23;;;7.80;99.90;;;;;;5124814;28;20043;-64
2022/05/06 01:34:18;;;;;;;25.77;16.55;;;7.70;99.90;;;;;;5123828;28;20047;-64
2022/05/06 01:36:47;;;;;;;29.88;18.55;;;7.70;99.90;;;;;;5123804;28;20036;-64
2022/05/06 01:39:18;;;;;;;23.52;15.20;;;7.80;99.90;;;;;;5123735;28;20480;-63
2022/05/06 01:41:45;;;;;;;22.70;14.82;;;7.70;99.90;;;;;;5124754;28;20051;-63
2022/05/06 01:44:14;;;;;;;24.75;16.15;;;7.70;99.90;;;;;;5123804;28;20043;-63
2022/05/06 01:46:40;;;;;;;24.83;15.80;;;7.70;99.90;;;;;;5124588;28;20058;-64
2022/05/06 01:49:08;;;;;;;27.85;16.27;;;7.70;99.90;;;;;;5123718;28;20067;-63
2022/05/06 01:51:36;;;;;;;22.50;16.10;;;7.70;99.90;;;;;;5124089;28;20202;-63
2022/05/06 01:54:02;;;;;;;27.77;17.02;;;7.60;99.90;;;;;;5124829;28;20039;-63
2022/05/06 01:56:28;;;;;;;24.20;16.42;;;7.70;99.90;;;;;;5106773;28;20112;-64
2022/05/06 01:58:54;;;;;;;23.98;17.13;;;7.70;99.90;;;;;;5123211;28;20047;-63
2022/05/06 02:01:19;;;;;;;23.70;17.25;;;7.70;99.90;;;;;;5123490;28;20054;-64
2022/05/06 02:06:29;;;;;;;20.50;14.57;;;7.60;99.90;;;;;;5124430;28;20130;-64
2022/05/06 02:08:55;;;;;;;21.92;15.15;;;7.50;99.90;;;;;;5122851;28;20406;-64
2022/05/06 02:11:21;;;;;;;24.30;16.48;;;7.50;99.90;;;;;;5124766;28;20058;-63
2022/05/06 02:13:47;;;;;;;20.83;14.18;;;7.60;99.90;;;;;;5123436;28;20039;-63
2022/05/06 02:16:13;;;;;;;24.45;14.88;;;7.60;99.90;;;;;;5119337;28;20035;-64
2022/05/06 02:18:38;;;;;;;25.65;15.50;;;7.50;99.90;;;;;;5108268;28;20165;-64
2022/05/06 02:21:04;;;;;;;28.67;16.70;;;7.50;99.90;;;;;;5103187;28;20058;-63
2022/05/06 02:23:30;;;;;;;28.42;16.23;;;7.50;99.90;;;;;;5122566;28;20123;-64
2022/05/06 02:25:56;;;;;;;24.98;16.98;;;7.40;99.90;;;;;;5124582;28;20043;-63
2022/05/06 02:28:22;;;;;;;24.52;16.10;;;7.50;99.90;;;;;;5123253;28;20047;-64
2022/05/06 02:33:32;;;;;;;25.45;15.68;;;7.40;99.90;;;;;;5123400;28;20074;-64
2022/05/06 02:35:59;;;;;;;25.70;17.10;;;7.40;99.90;;;;;;5124266;28;20043;-63
2022/05/06 02:38:26;;;;;;;28.35;17.05;;;7.30;99.90;;;;;;5122728;28;20321;-63
2022/05/06 02:40:52;;;;;;;25.73;16.67;;;7.30;99.90;;;;;;5123283;28;20055;-63
2022/05/06 02:43:17;;;;;;;28.30;17.40;;;7.40;99.90;;;;;;5124696;28;20036;-63
2022/05/06 02:45:44;;;;;;;26.23;17.70;;;7.40;99.90;;;;;;5126965;28;20090;-64
2022/05/06 02:48:10;;;;;;;26.52;16.63;;;7.50;99.90;;;;;;5127367;28;20095;-63
2022/05/06 02:50:37;;;;;;;26.20;16.35;;;7.40;99.90;;;;;;5110339;28;20044;-64
2022/05/06 02:53:03;;;;;;;23.95;15.98;;;7.40;99.90;;;;;;5128896;28;20063;-64
2022/05/06 02:55:29;;;;;;;22.70;15.13;;;7.30;99.90;;;;;;5127311;28;20051;-63
2022/05/06 02:57:55;;;;;;;23.33;15.98;;;7.20;99.90;;;;;;5109627;28;20058;-64
2022/05/06 03:00:21;;;;;;;25.77;16.63;;;7.00;99.90;;;;;;5128075;28;20111;-64
2022/05/06 03:02:47;;;;;;;32.05;17.27;;;7.10;99.90;;;;;;5126798;28;20057;-63
2022/05/06 03:05:13;;;;;;;26.45;15.68;;;7.00;99.90;;;;;;5126544;28;20039;-64
2022/05/06 03:07:41;;;;;;;25.67;16.48;;;7.10;99.90;;;;;;5106044;28;20060;-64
2022/05/06 03:10:07;;;;;;;26.17;17.30;;;7.10;99.90;;;;;;5107310;28;20055;-64
2022/05/06 03:12:34;;;;;;;30.52;17.67;;;7.10;99.90;;;;;;5107229;28;20055;-63
2022/05/06 03:15:03;;;;;;;25.55;16.42;;;7.20;99.90;;;;;;5123512;28;20032;-64
2022/05/06 03:17:32;;;;;;;31.42;18.52;;;7.20;99.90;;;;;;5121866;28;20057;-63
2022/05/06 03:19:58;;;;;;;27.50;17.65;;;7.20;99.90;;;;;;5127979;28;20050;-64
2022/05/06 03:22:24;;;;;;;30.55;18.58;;;7.10;99.90;;;;;;5126137;28;20047;-63
2022/05/06 03:24:50;;;;;;;35.20;18.80;;;7.00;99.90;;;;;;5119721;28;20043;-64
2022/05/06 03:30:00;;;;;;;23.98;16.40;;;7.10;99.90;;;;;;5126868;28;20082;-63
2022/05/06 03:32:28;;;;;;;25.92;17.25;;;7.10;99.90;;;;;;5120413;28;20043;-63
2022/05/06 03:34:55;;;;;;;25.42;17.27;;;7.10;99.90;;;;;;5126917;28;20031;-63
2022/05/06 03:37:20;;;;;;;27.48;16.70;;;7.00;99.90;;;;;;5120779;28;20036;-64
2022/05/06 03:39:46;;;;;;;26.15;17.23;;;7.10;99.90;;;;;;5108858;28;20047;-64
2022/05/06 03:42:13;;;;;;;29.17;17.55;;;6.90;99.90;;;;;;5121265;28;20048;-64
2022/05/06 03:44:39;;;;;;;22.92;15.50;;;6.90;99.90;;;;;;5119710;28;20077;-64
2022/05/06 03:47:05;;;;;;;24.38;16.20;;;6.90;99.90;;;;;;5119447;28;20043;-63
2022/05/06 03:49:30;;;;;;;26.73;18.10;;;6.90;99.90;;;;;;5118316;28;20048;-63
2022/05/06 03:51:56;;;;;;;27.40;17.92;;;6.80;99.90;;;;;;5119073;28;20043;-63
2022/05/06 03:54:22;;;;;;;29.63;19.17;;;6.90;99.90;;;;;;5124169;28;20100;-63
2022/05/06 03:56:47;;;;;;;26.15;17.92;;;6.80;99.90;;;;;;5121446;28;20040;-63
2022/05/06 03:59:13;;;;;;;29.85;17.45;;;6.80;99.90;;;;;;5122160;28;20073;-63
2022/05/06 04:01:39;;;;;;;34.88;18.92;;;6.80;99.90;;;;;;5125446;28;20058;-64
2022/05/06 04:04:05;;;;;;;29.92;18.58;;;6.70;99.90;;;;;;5117245;28;20044;-63
2022/05/06 04:06:31;;;;;;;30.33;17.63;;;6.70;99.90;;;;;;5124813;28;20048;-64
2022/05/06 04:08:56;;;;;;;29.35;18.13;;;6.80;99.90;;;;;;5122252;28;20050;-64
2022/05/06 04:11:24;;;;;;;23.45;16.05;;;6.80;99.90;;;;;;5122104;28;20067;-63
2022/05/06 04:13:49;;;;;;;26.80;17.38;;;6.70;99.90;;;;;;5118196;28;20044;-63
2022/05/06 04:16:15;;;;;;;26.05;16.90;;;6.60;99.90;;;;;;5123561;28;20046;-64
2022/05/06 04:18:41;;;;;;;23.52;15.93;;;6.50;99.90;;;;;;5120126;28;20056;-64
2022/05/06 04:23:51;;;;;;;22.70;14.32;;;6.60;99.90;;;;;;5125103;28;20054;-64
2022/05/06 04:26:18;;;;;;;19.60;13.43;;;6.60;99.90;;;;;;5124388;28;20082;-63
2022/05/06 04:28:44;;;;;;;20.55;14.45;;;6.60;99.90;;;;;;5121425;28;20050;-64
2022/05/06 04:31:10;;;;;;;21.65;13.77;;;6.70;99.90;;;;;;5123960;28;20107;-64
2022/05/06 04:33:41;;;;;;;25.83;16.40;;;6.80;99.90;;;;;;5126269;28;20071;-63
2022/05/06 04:36:07;;;;;;;23.98;15.32;;;6.70;99.90;;;;;;5126392;28;20035;-64
2022/05/06 04:38:33;;;;;;;25.02;16.38;;;6.60;99.90;;;;;;5125288;28;20047;-64
2022/05/06 04:41:00;;;;;;;24.63;16.33;;;6.80;99.90;;;;;;5123865;28;20043;-64
2022/05/06 04:43:26;;;;;;;23.65;14.57;;;6.90;99.90;;;;;;5120993;28;20040;-64
2022/05/06 04:45:52;;;;;;;22.75;15.55;;;6.90;99.90;;;;;;5125137;28;20549;-64
2022/05/06 04:48:18;;;;;;;25.83;16.40;;;6.90;99.90;;;;;;5118019;28;20070;-63
2022/05/06 04:50:44;;;;;;;28.75;16.48;;;7.00;99.90;;;;;;5124275;28;20039;-63
2022/05/06 04:53:11;;;;;;;34.10;18.50;;;7.10;99.90;;;;;;5121437;28;20095;-63
2022/05/06 04:55:38;;;;;;;27.40;17.85;;;7.20;99.90;;;;;;5124272;28;20048;-64
2022/05/06 04:58:05;;;;;;;30.02;18.52;;;7.20;99.90;;;;;;5120793;28;20100;-63
2022/05/06 05:00:31;;;;;;;29.73;18.42;;;7.30;99.90;;;;;;5121768;28;20090;-64
2022/05/06 05:03:01;;;;;;;30.30;20.20;;;7.30;99.90;;;;;;5124577;28;20053;-63
2022/05/06 05:05:28;;;;;;;35.72;19.45;;;7.50;99.90;;;;;;5119940;28;20036;-64
2022/05/06 05:07:54;;;;;;;36.53;20.08;;;7.60;99.90;;;;;;5120708;28;20055;-64
2022/05/06 05:10:21;;;;;;;33.25;18.88;;;7.70;99.90;;;;;;5121942;28;20055;-64
2022/05/06 05:12:47;;;;;;;32.22;18.67;;;7.70;99.90;;;;;;5118028;28;20047;-64
2022/05/06 05:15:15;;;;;;;35.08;19.17;;;7.80;99.90;;;;;;5123633;28;20062;-64
2022/05/06 05:17:44;;;;;;;32.17;19.52;;;7.70;99.90;;;;;;5124292;28;20054;-63
2022/05/06 05:20:11;;;;;;;33.10;18.80;;;7.80;99.90;;;;;;5124379;28;20057;-64
2022/05/06 05:22:37;;;;;;;27.55;19.02;;;7.90;99.90;;;;;;5125528;28;20032;-64
2022/05/06 05:25:04;;;;;;;35.67;19.70;;;8.00;99.90;;;;;;5117888;28;20409;-63
2022/05/06 05:27:33;;;;;;;29.02;19.13;;;7.90;99.90;;;;;;5119381;28;20051;-63
2022/05/06 05:29:59;;;;;;;32.07;20.60;;;8.00;99.90;;;;;;5125173;28;20047;-63
2022/05/06 05:32:26;;;;;;;31.77;19.40;;;8.10;99.90;;;;;;5124668;28;20043;-63
2022/05/06 05:34:52;;;;;;;34.53;21.95;;;8.10;99.90;;;;;;5121851;28;20055;-63
2022/05/06 05:37:17;;;;;;;38.63;21.88;;;8.10;99.90;;;;;;5118504;28;20064;-64
2022/05/06 05:39:44;;;;;;;39.20;24.73;;;8.30;99.90;;;;;;5123137;28;20070;-64
2022/05/06 05:42:09;;;;;;;39.20;22.63;;;8.40;99.90;;;;;;5123150;28;20043;-64
2022/05/06 05:50:05;;;;;;;37.58;22.45;;;8.60;99.90;;;;;;5123327;28;20161;-64
2022/05/06 05:52:31;;;;;;;33.15;21.23;;;8.80;99.90;;;;;;5123092;28;20096;-64
2022/05/06 05:54:57;;;;;;;37.30;19.63;;;8.90;99.90;;;;;;5118276;28;20083;-63
2022/05/06 05:57:22;;;;;;;33.47;20.25;;;8.90;99.90;;;;;;5135451;28;20063;-64
2022/05/06 05:59:48;;;;;;;36.20;22.35;;;9.10;99.90;;;;;;5120628;28;20104;-64
2022/05/06 06:02:16;;;;;;;41.92;23.13;;;9.10;99.90;;;;;;5121956;28;20063;-64
2022/05/06 06:04:43;;;;;;;46.33;25.52;;;9.20;99.90;;;;;;5121403;28;20055;-64
2022/05/06 06:07:09;;;;;;;51.40;29.67;;;9.30;99.90;;;;;;5088629;28;20051;-61
2022/05/06 06:09:34;;;;;;;53.30;30.00;;;9.40;99.90;;;;;;5122868;28;20206;-63
2022/05/06 06:12:00;;;;;;;64.03;32.63;;;9.50;99.90;;;;;;5122072;28;20083;-62
2022/05/06 06:14:26;;;;;;;59.95;32.55;;;9.60;99.90;;;;;;5121898;28;20042;-62
2022/05/06 06:16:51;;;;;;;68.22;37.10;;;9.80;99.90;;;;;;5119375;28;20050;-62
2022/05/06 06:19:17;;;;;;;67.80;37.33;;;9.80;99.90;;;;;;5121629;28;20063;-63
2022/05/06 06:21:44;;;;;;;68.65;35.63;;;10.10;99.90;;;;;;5114496;28;20048;-63
2022/05/06 06:24:10;;;;;;;62.30;34.90;;;10.20;99.90;;;;;;5108855;28;20387;-63
2022/05/06 06:26:36;;;;;;;63.28;34.75;;;10.40;99.90;;;;;;5113504;28;20064;-63
2022/05/06 06:29:02;;;;;;;59.97;33.65;;;10.30;99.90;;;;;;5118860;28;20039;-63
2022/05/06 06:31:31;;;;;;;62.30;32.97;;;10.30;99.90;;;;;;5112646;28;20105;-63
2022/05/06 06:34:00;;;;;;;66.63;35.35;;;10.50;99.90;;;;;;5118511;28;20056;-64
2022/05/06 06:36:26;;;;;;;57.40;34.88;;;10.50;99.90;;;;;;5120833;28;20035;-63
2022/05/06 06:38:52;;;;;;;62.60;34.13;;;10.70;99.90;;;;;;5121146;28;20044;-64
2022/05/06 06:41:19;;;;;;;54.45;30.77;;;10.90;99.90;;;;;;5117631;28;20046;-64
2022/05/06 06:43:45;;;;;;;54.13;31.77;;;10.90;99.90;;;;;;5125578;28;20100;-64
2022/05/06 06:46:11;;;;;;;52.03;31.30;;;11.00;99.90;;;;;;5121251;28;20074;-64
2022/05/06 06:48:39;;;;;;;54.75;31.17;;;11.10;99.90;;;;;;5124014;28;20071;-64
2022/05/06 06:51:05;;;;;;;46.58;27.27;;;11.10;99.90;;;;;;5125417;28;20040;-66
2022/05/06 06:53:30;;;;;;;49.72;31.92;;;11.10;99.90;;;;;;5116979;28;20070;-63
2022/05/06 06:55:56;;;;;;;43.17;26.10;;;11.30;99.90;;;;;;5106235;28;20039;-62
2022/05/06 06:58:22;;;;;;;44.92;26.88;;;11.30;99.90;;;;;;5083056;28;20080;-62
2022/05/06 07:00:48;;;;;;;49.92;28.73;;;11.50;99.90;;;;;;5103587;28;20052;-62
2022/05/06 07:03:14;;;;;;;45.65;27.38;;;11.50;99.90;;;;;;5103580;28;20036;-62
2022/05/06 07:13:55;;;;;;;58.25;25.77;;;12.20;99.90;;;;;;5093350;27;20120;-63
2022/05/06 07:16:21;;;;;;;35.83;22.17;;;12.10;99.90;;;;;;5097056;28;20055;-63
2022/05/06 07:18:47;;;;;;;35.70;22.67;;;12.20;99.90;;;;;;5093353;28;20044;-63
2022/05/06 07:21:12;;;;;;;35.45;21.60;;;12.10;99.90;;;;;;5093417;28;20059;-62
2022/05/06 07:23:38;;;;;;;33.08;21.80;;;12.10;99.90;;;;;;5087788;28;20048;-63
2022/05/06 07:26:03;;;;;;;35.45;22.55;;;12.10;99.90;;;;;;5101703;28;20040;-63
2022/05/06 07:28:29;;;;;;;38.97;22.70;;;12.20;99.90;;;;;;5095413;28;20063;-63
2022/05/06 07:30:55;;;;;;;36.38;21.88;;;12.10;99.90;;;;;;5100416;28;20074;-63
2022/05/06 07:33:20;;;;;;;32.90;21.25;;;12.10;99.90;;;;;;5089607;28;20520;-63
2022/05/06 07:35:46;;;;;;;33.90;21.92;;;12.20;99.90;;;;;;5093974;28;20044;-63
2022/05/06 07:38:12;;;;;;;35.08;22.35;;;12.10;99.90;;;;;;5089268;28;20055;-63
2022/05/06 07:40:37;;;;;;;33.22;21.73;;;12.50;99.90;;;;;;5105307;28;20058;-63
2022/05/06 07:43:03;;;;;;;42.35;24.08;;;12.40;99.90;;;;;;5081350;28;20097;-62
2022/05/06 07:45:29;;;;;;;38.72;24.08;;;12.40;99.90;;;;;;5089066;28;20048;-63
2022/05/06 07:47:55;;;;;;;38.53;24.05;;;12.50;99.90;;;;;;5090826;28;20063;-62
2022/05/06 07:50:20;;;;;;;41.08;26.52;;;12.50;99.90;;;;;;5072453;28;20111;-62
2022/05/06 07:52:46;;;;;;;40.13;24.73;;;12.50;99.90;;;;;;5091834;28;20688;-63
2022/05/06 07:55:15;;;;;;;38.33;24.70;;;12.50;99.90;;;;;;5094105;28;20071;-63
2022/05/06 07:57:41;;;;;;;38.92;26.38;;;12.60;99.90;;;;;;5087324;28;20052;-63
2022/05/06 08:00:07;;;;;;;38.47;26.25;;;12.60;99.90;;;;;;5077306;28;20063;-63
2022/05/06 08:05:17;;;;;;;35.72;24.20;;;12.70;99.90;;;;;;5078375;28;20637;-63
2022/05/06 08:07:44;;;;;;;32.30;21.33;;;12.80;99.90;;;;;;5080020;28;20052;-62
2022/05/06 08:10:09;;;;;;;32.88;23.52;;;12.80;99.90;;;;;;5062058;28;20071;-62
2022/05/06 08:12:35;;;;;;;32.83;21.90;;;12.90;99.90;;;;;;5092938;28;20040;-62
2022/05/06 08:15:02;;;;;;;29.73;21.10;;;12.90;99.90;;;;;;5084400;28;20085;-62
2022/05/06 08:17:28;;;;;;;31.88;20.92;;;12.80;99.90;;;;;;5088010;28;20071;-62
2022/05/06 08:19:55;;;;;;;31.80;21.40;;;13.00;99.90;;;;;;5068248;28;20052;-63
2022/05/06 08:22:21;;;;;;;31.95;20.90;;;12.90;99.90;;;;;;5077875;28;20047;-62
2022/05/06 08:24:47;;;;;;;32.45;20.55;;;12.90;99.90;;;;;;5060929;28;20063;-62
2022/05/06 08:27:13;;;;;;;32.03;23.15;;;12.90;99.90;;;;;;5092371;28;20491;-62
2022/05/06 08:29:41;;;;;;;31.65;20.92;;;12.90;99.90;;;;;;5062616;28;20114;-63
2022/05/06 08:32:07;;;;;;;32.92;23.00;;;13.00;99.90;;;;;;5083809;28;20040;-62
2022/05/06 08:34:32;;;;;;;32.03;21.52;;;13.00;99.90;;;;;;5070853;28;20056;-62
2022/05/06 08:36:58;;;;;;;31.00;21.25;;;13.10;99.90;;;;;;5091922;28;20107;-63
2022/05/06 08:39:24;;;;;;;35.33;24.48;;;13.20;99.90;;;;;;5099190;27;20047;-62
2022/05/06 08:41:51;;;;;;;30.00;21.45;;;13.20;99.90;;;;;;5097022;28;20105;-62
2022/05/06 08:52:43;;;;;;;30.25;21.55;;;13.90;99.90;;;;;;5095160;28;20057;-62
2022/05/06 08:55:09;;;;;;;32.20;20.63;;;13.80;99.90;;;;;;5099868;27;20058;-62
2022/05/06 08:57:36;;;;;;;25.65;18.83;;;13.80;99.90;;;;;;5097239;28;20063;-63
2022/05/06 09:00:04;;;;;;;25.25;19.15;;;13.80;99.90;;;;;;5085491;28;20050;-62
2022/05/06 09:02:30;;;;;;;26.08;18.83;;;14.00;99.90;;;;;;5083413;28;20048;-62
2022/05/06 09:04:55;;;;;;;27.35;19.67;;;13.80;99.90;;;;;;5091964;27;20051;-62
2022/05/06 09:07:23;;;;;;;28.15;19.55;;;13.90;99.90;;;;;;5081484;28;20055;-62
2022/05/06 09:10:14;;;;;;;25.50;18.58;;;13.90;99.90;;;;;;5072377;27;20111;-62
2022/05/06 09:12:45;;;;;;;26.75;19.13;;;13.90;99.90;;;;;;5110612;28;20047;-62
2022/05/06 09:18:01;;;;;;;22.05;15.98;;;14.10;99.90;;;;;;5111046;28;20100;-63
2022/05/06 09:20:28;;;;;;;20.60;15.27;;;14.20;99.90;;;;;;5087137;28;20375;-62
2022/05/06 09:22:55;;;;;;;21.10;15.23;;;14.30;99.90;;;;;;5114716;28;20058;-63
2022/05/06 09:25:34;;;;;;;22.52;15.93;;;14.50;99.90;;;;;;5090971;27;20054;-62
2022/05/06 09:28:00;;;;;;;20.55;14.30;;;14.60;99.90;;;;;;5109975;28;20051;-63
2022/05/06 09:30:25;;;;;;;20.27;13.98;;;14.70;99.90;;;;;;5094273;28;20175;-63
2022/05/06 09:32:51;;;;;;;19.13;14.10;;;14.90;99.90;;;;;;5107221;28;20493;-62
2022/05/06 09:35:18;;;;;;;19.67;15.25;;;15.00;99.90;;;;;;5102215;28;20071;-62
2022/05/06 09:37:48;;;;;;;18.45;12.63;;;15.10;99.90;;;;;;5089603;28;20127;-62
2022/05/06 09:40:19;;;;;;;15.07;11.68;;;15.10;99.90;;;;;;5082906;28;20484;-63
2022/05/06 09:42:55;;;;;;;17.33;12.20;;;15.40;99.90;;;;;;5077663;28;20441;-62
2022/05/06 09:45:43;;;;;;;14.05;10.65;;;15.40;99.90;;;;;;5100055;28;20066;-62
2022/05/06 09:48:10;;;;;;;19.88;15.82;;;15.70;99.90;;;;;;5083865;28;20739;-63
2022/05/06 09:50:38;;;;;;;13.55;10.48;;;15.70;99.90;;;;;;5077598;28;20055;-62
2022/05/06 09:53:09;;;;;;;11.85;9.75;;;15.80;99.90;;;;;;5096102;28;20093;-62
2022/05/06 09:55:37;;;;;;;13.32;10.35;;;15.90;99.90;;;;;;5077359;28;20155;-62
2022/05/06 09:58:04;;;;;;;13.38;10.95;;;16.10;99.90;;;;;;5089887;28;20043;-63
2022/05/06 10:00:30;;;;;;;9.63;7.45;;;16.20;99.90;;;;;;5090402;28;20058;-63
2022/05/06 10:02:56;;;;;;;4.82;3.83;;;16.00;99.90;;;;;;5089254;28;20424;-62
2022/05/06 10:05:24;;;;;;;7.18;4.95;;;16.30;99.90;;;;;;5081126;28;20097;-63
2022/05/06 10:07:55;;;;;;;6.82;6.10;;;16.40;99.90;;;;;;5087084;28;20134;-63
2022/05/06 10:10:25;;;;;;;5.90;5.30;;;16.60;99.90;;;;;;5073304;28;20119;-63
2022/05/06 10:12:53;;;;;;;;;;;16.60;99.90;;;;;;5097421;28;20062;-63
2022/05/06 10:15:22;;;;;;;6.20;5.03;;;16.60;99.90;;;;;;5080166;28;19923;-62
2022/05/06 10:17:52;;;;;;;6.70;6.00;;;16.60;99.90;;;;;;5094013;28;20047;-63
2022/05/06 10:20:42;;;;;;;6.47;5.72;;;16.70;99.90;;;;;;5095304;28;20740;-63
2022/05/06 10:23:13;;;;;;;5.97;5.10;;;16.90;99.90;;;;;;5088572;28;20055;-62
2022/05/06 10:25:42;;;;;;;7.43;6.63;;;16.80;99.90;;;;;;5083669;28;20058;-63
2022/05/06 10:34:14;;;;;;;8.88;7.47;;;16.90;99.90;;;;;;5089246;28;20061;-63
2022/05/06 10:36:43;;;;;;;10.65;7.38;;;17.10;99.90;;;;;;5077880;28;20062;-62
2022/05/06 10:39:26;;;;;;;6.45;5.82;;;17.00;99.90;;;;;;5111905;28;20077;-62
2022/05/06 10:42:17;;;;;;;7.05;6.25;;;17.00;99.90;;;;;;5099661;28;20085;-62
2022/05/06 10:44:44;;;;;;;7.45;6.75;;;17.10;99.90;;;;;;5112654;28;20067;-63
2022/05/06 10:47:12;;;;;;;7.50;6.80;;;17.10;99.90;;;;;;5087511;28;20043;-63
2022/05/06 10:49:38;;;;;;;6.65;5.95;;;17.10;99.90;;;;;;5110921;28;20039;-62
2022/05/06 10:52:20;;;;;;;7.00;4.90;;;17.10;99.90;;;;;;5094937;28;20052;-63
2022/05/06 10:54:48;;;;;;;6.60;5.90;;;17.20;99.90;;;;;;5099157;28;20051;-63
2022/05/06 10:57:20;;;;;;;6.45;5.85;;;17.40;99.90;;;;;;5088665;28;20111;-63
2022/05/06 11:00:02;;;;;;;6.13;5.53;;;17.50;99.90;;;;;;5096867;28;20074;-64
2022/05/06 11:02:35;;;;;;;6.80;6.18;;;17.50;99.90;;;;;;5086131;28;20180;-65
2022/05/06 11:05:02;;;;;;;5.80;5.18;;;17.30;99.90;;;;;;5101510;28;20074;-64
2022/05/06 11:07:30;;;;;;;5.25;4.75;;;17.40;99.90;;;;;;5120836;27;20055;-64
2022/05/06 11:09:59;;;;;;;6.68;5.43;;;17.50;99.90;;;;;;5094680;28;20112;-62
2022/05/06 11:12:35;;;;;;;7.17;6.47;;;17.70;99.90;;;;;;5095722;28;20043;-64
2022/05/06 11:15:03;;;;;;;6.38;5.78;;;17.70;99.90;;;;;;5100246;28;20044;-64
2022/05/06 11:17:33;;;;;;;6.00;5.40;;;17.80;99.90;;;;;;5089317;28;20157;-64
2022/05/06 11:19:59;;;;;;;;;;;17.80;99.90;;;;;;5116483;28;20452;-62
2022/05/06 11:22:25;;;;;;;6.55;5.43;;;18.20;99.90;;;;;;5120522;27;20727;-64
2022/05/06 11:25:01;;;;;;;6.57;5.18;;;18.10;99.90;;;;;;5101993;28;20051;-64
2022/05/06 11:27:26;;;;;;;5.65;4.88;;;18.20;99.90;;;;;;5096596;28;20040;-64
2022/05/06 11:29:57;;;;;;;10.35;4.78;;;18.30;99.90;;;;;;5133889;27;20062;-64
2022/05/06 11:32:24;;;;;;;6.13;4.63;;;18.30;99.90;;;;;;5084873;28;20694;-64
2022/05/06 11:34:56;;;;;;;5.55;4.10;;;18.40;99.90;;;;;;5109064;28;20099;-63
2022/05/06 11:37:23;;;;;;;5.13;4.45;;;18.40;99.90;;;;;;5087832;28;20044;-64
2022/05/06 11:39:50;;;;;;;5.75;5.15;;;18.40;99.90;;;;;;5097317;28;20052;-64
2022/05/06 11:42:23;;;;;;;5.35;4.03;;;18.50;99.90;;;;;;5089627;28;20043;-62
2022/05/06 11:47:44;;;;;;;7.00;5.03;;;18.90;99.90;;;;;;5095279;28;20109;-60
2022/05/06 11:50:10;;;;;;;3.47;3.10;;;19.10;99.90;;;;;;5108641;28;20043;-63
2022/05/06 11:52:39;;;;;;;3.50;3.20;;;19.00;99.90;;;;;;5084391;28;20323;-63
2022/05/06 11:55:06;;;;;;;2.90;2.70;;;18.80;99.90;;;;;;5105488;28;20055;-64
2022/05/06 11:57:35;;;;;;;3.80;3.35;;;18.90;99.90;;;;;;5087437;28;20101;-64
2022/05/06 12:00:05;;;;;;;4.07;3.25;;;19.00;99.90;;;;;;5108842;28;20039;-63
2022/05/06 12:02:31;;;;;;;3.45;3.15;;;19.00;99.90;;;;;;5106893;28;20108;-63
2022/05/06 12:04:56;;;;;;;3.70;3.40;;;19.00;99.90;;;;;;5130591;27;20035;-63
2022/05/06 12:07:48;;;;;;;7.03;3.67;;;19.10;99.90;;;;;;5108289;27;20060;-63
2022/05/06 12:10:24;;;;;;;3.95;3.20;;;19.40;99.90;;;;;;5095403;28;20059;-62
2022/05/06 12:12:57;;;;;;;4.53;3.08;;;19.20;99.90;;;;;;5095758;27;20557;-62
2022/05/06 12:15:34;;;;;;;3.33;2.70;;;19.20;99.90;;;;;;5109848;28;20047;-61
2022/05/06 12:18:03;;;;;;;3.28;2.97;;;19.10;99.90;;;;;;5109183;27;20493;-62
2022/05/06 12:20:37;;;;;;;3.45;3.08;;;19.20;99.90;;;;;;5122217;27;20300;-62
2022/05/06 12:23:05;;;;;;;4.38;2.58;;;19.10;99.90;;;;;;5078274;27;20591;-65
2022/05/06 12:25:31;;;;;;;5.85;3.25;;;19.10;99.90;;;;;;5118353;27;20047;-65
2022/05/06 12:28:05;;;;;;;3.92;3.53;;;19.20;99.90;;;;;;5092770;28;20416;-64
2022/05/06 12:30:31;;;;;;;3.65;3.33;;;19.40;99.90;;;;;;5139376;27;20047;-65
2022/05/06 12:33:17;;;;;;;4.32;3.92;;;19.40;99.90;;;;;;5110190;27;20566;-65
2022/05/06 12:35:59;;;;;;;6.10;4.20;;;19.50;99.90;;;;;;5119631;27;20674;-65
2022/05/06 12:38:45;;;;;;;4.30;3.90;;;19.50;99.90;;;;;;5096825;27;20138;-66
2022/05/06 12:41:19;;;;;;;6.35;4.20;;;19.70;99.90;;;;;;5138560;27;20525;-66
2022/05/06 12:43:46;;;;;;;5.15;3.22;;;19.90;99.90;;;;;;5095024;27;20183;-65
2022/05/06 12:46:30;;;;;;;3.25;2.67;;;20.00;99.90;;;;;;5118916;27;20051;-65
2022/05/06 12:51:44;;;;;;;5.80;3.60;;;20.30;99.90;;;;;;5106019;27;20827;-65
2022/05/06 12:54:10;;;;;;;4.32;2.85;;;20.50;99.90;;;;;;5091786;27;20054;-63
2022/05/06 12:56:38;;;;;;;12.10;2.97;;;20.50;99.90;;;;;;5122114;27;20058;-62
2022/05/06 12:59:04;;;;;;;3.95;2.58;;;20.60;99.90;;;;;;5104345;27;20034;-62
2022/05/06 13:01:30;;;;;;;5.60;3.08;;;20.70;99.90;;;;;;5124677;27;20467;-65
2022/05/06 13:03:56;;;;;;;4.35;2.38;;;20.70;99.90;;;;;;5091079;27;20289;-63
2022/05/06 13:06:22;;;;;;;3.97;2.72;;;20.80;99.90;;;;;;5137232;27;20031;-63
2022/05/06 13:08:48;;;;;;;3.03;2.63;;;21.10;99.90;;;;;;5099146;27;20060;-63
2022/05/06 13:11:13;;;;;;;5.15;1.98;;;21.40;99.90;;;;;;5120728;27;20138;-63
2022/05/06 13:13:40;;;;;;;2.85;1.98;;;21.30;99.90;;;;;;5115705;27;20122;-63
2022/05/06 13:16:06;;;;;;;64.47;7.40;;;21.20;99.90;;;;;;5106579;27;20144;-63
2022/05/06 13:18:32;;;;;;;2.13;1.90;;;21.40;99.90;;;;;;5095757;28;20056;-63
2022/05/06 13:20:57;;;;;;;3.17;2.72;;;21.60;99.90;;;;;;5080344;28;20048;-63
2022/05/06 13:23:23;;;;;;;4.95;2.50;;;21.90;99.90;;;;;;5095361;28;20040;-63
2022/05/06 13:25:49;;;;;;;5.28;2.85;;;22.00;99.90;;;;;;5085425;28;20063;-63
2022/05/06 13:28:16;;;;;;;33.53;4.70;;;22.20;99.60;;;;;;5085577;28;20108;-63
2022/05/06 13:30:41;;;;;;;4.25;2.50;;;22.20;99.90;;;;;;5096138;28;20048;-63